Time;durP1;ratioP1;P1;durP2;ratioP2;P2;SDS_P1;SDS_P2;PMS_P1;PMS_P2;Temp;Humidity;BMP_temperature;BMP_pressure;BME280_temperature;BME280_humidity;BME280_pressure;Samples;Min_cycle;Max_cycle;Signal;HPM_P1;HPM_P2
2023/07/19 00:01:53;;;;;;;5.40;3.10;;;;;;;32.26;32.41;99525.47;4858555;29;20029;-45
2023/07/19 00:04:19;;;;;;;5.82;3.40;;;;;;;32.29;32.34;99515.69;4858638;29;20021;-46
2023/07/19 00:06:44;;;;;;;3.95;3.00;;;;;;;32.41;32.22;99510.13;4858406;29;20021;-44
2023/07/19 00:09:09;;;;;;;5.40;3.28;;;;;;;32.49;31.94;99509.13;4858544;29;20102;-45
2023/07/19 00:11:35;;;;;;;4.63;3.13;;;;;;;32.68;31.84;99505.66;4858469;29;20101;-43
2023/07/19 00:14:05;;;;;;;4.90;3.08;;;;;;;32.51;31.84;99495.81;4857803;29;20165;-46
2023/07/19 00:16:31;;;;;;;3.72;3.20;;;;;;;32.22;32.39;99501.78;4858577;29;20147;-42
2023/07/19 00:18:56;;;;;;;4.53;3.08;;;;;;;32.21;32.47;99502.94;4858270;29;20539;-43
2023/07/19 00:21:22;;;;;;;3.88;3.08;;;;;;;32.37;32.25;99489.16;4858826;29;20036;-45
2023/07/19 00:23:47;;;;;;;4.55;3.15;;;;;;;32.49;32.21;99500.06;4858461;29;20025;-46
2023/07/19 00:26:13;;;;;;;3.80;2.90;;;;;;;32.70;31.87;99497.06;4858430;29;20041;-46
2023/07/19 00:28:38;;;;;;;5.45;3.38;;;;;;;32.91;31.38;99508.53;4858572;29;20235;-44
2023/07/19 00:31:04;;;;;;;4.70;3.08;;;;;;;33.06;31.14;99500.59;4858726;29;20041;-45
2023/07/19 00:33:30;;;;;;;5.30;3.17;;;;;;;32.51;32.20;99498.56;4858422;29;20059;-43
2023/07/19 00:35:55;;;;;;;6.25;3.03;;;;;;;32.33;32.52;99494.59;4858692;29;20033;-43
2023/07/19 00:38:24;;;;;;;4.38;2.90;;;;;;;32.30;32.55;99492.53;4859316;29;20459;-46
2023/07/19 00:40:49;;;;;;;5.38;3.33;;;;;;;32.33;32.38;99492.63;4842518;29;20477;-44
2023/07/19 00:43:15;;;;;;;6.22;4.03;;;;;;;32.27;32.46;99496.00;4859270;29;20037;-42
2023/07/19 00:45:51;;;;;;;3.83;3.15;;;;;;;32.43;32.33;99493.25;4859205;29;20040;-46
2023/07/19 00:48:18;;;;;;;3.60;2.90;;;;;;;32.63;31.83;99494.91;4859239;29;20029;-45
2023/07/19 00:50:44;;;;;;;4.32;3.22;;;;;;;32.02;32.98;99489.88;4859440;29;20044;-46
2023/07/19 00:53:11;;;;;;;4.65;3.10;;;;;;;31.77;33.59;99493.53;4859159;29;20486;-42
2023/07/19 00:55:37;;;;;;;5.20;3.33;;;;;;;31.79;33.47;99489.63;4858759;29;20042;-42
2023/07/19 00:58:03;;;;;;;6.43;2.92;;;;;;;32.06;32.98;99491.56;4858859;29;20175;-47
2023/07/19 01:00:29;;;;;;;5.47;2.97;;;;;;;32.19;32.79;99495.03;4858553;29;20569;-42
2023/07/19 01:02:55;;;;;;;4.00;3.15;;;;;;;32.10;33.08;99494.38;4858819;29;20092;-42
2023/07/19 01:05:21;;;;;;;5.85;3.13;;;;;;;32.33;32.67;99505.59;4858949;29;20034;-43
2023/07/19 01:07:46;;;;;;;5.13;3.20;;;;;;;31.78;33.55;99494.34;4859016;29;20402;-45
2023/07/19 01:10:13;;;;;;;5.22;3.40;;;;;;;31.60;33.97;99501.31;4859019;29;20045;-44
2023/07/19 01:12:38;;;;;;;5.00;3.03;;;;;;;31.54;34.08;99489.75;4858881;29;20133;-45
2023/07/19 01:15:08;;;;;;;4.65;3.13;;;;;;;31.76;33.80;99500.19;4859090;29;20395;-44
2023/07/19 01:17:34;;;;;;;3.63;3.10;;;;;;;31.96;33.56;99503.84;4858746;29;20581;-43
2023/07/19 01:20:00;;;;;;;4.38;3.08;;;;;;;31.93;33.82;99501.81;4858889;29;20041;-45
2023/07/19 01:22:34;;;;;;;4.63;3.00;;;;;;;32.14;33.41;99493.34;4865433;29;20032;-45
2023/07/19 01:25:00;;;;;;;3.35;2.92;;;;;;;31.56;34.25;99499.25;4858597;29;20030;-42
2023/07/19 01:27:25;;;;;;;3.63;3.17;;;;;;;31.33;34.66;99498.97;4855872;29;20096;-42
2023/07/19 01:29:51;;;;;;;4.88;3.38;;;;;;;31.32;34.93;99489.13;4840401;29;20049;-42
2023/07/19 01:32:17;;;;;;;4.07;3.00;;;;;;;31.31;34.89;99494.97;4840079;29;20038;-42
2023/07/19 01:34:42;;;;;;;4.53;3.30;;;;;;;31.50;34.36;99488.84;4840548;29;20049;-43
2023/07/19 01:37:08;;;;;;;4.18;3.28;;;;;;;31.55;34.34;99499.63;4842334;29;20460;-42
2023/07/19 01:39:33;;;;;;;5.15;3.05;;;;;;;31.52;34.25;99492.06;4843902;29;20494;-43
2023/07/19 01:41:58;;;;;;;4.53;3.40;;;;;;;31.18;34.89;99495.00;4843793;29;20021;-43
2023/07/19 01:44:24;;;;;;;4.22;3.00;;;;;;;30.98;35.15;99487.75;4843614;29;20030;-44
2023/07/19 01:46:49;;;;;;;3.90;3.05;;;;;;;31.16;35.19;99488.25;4843843;29;20081;-44
2023/07/19 01:49:15;;;;;;;4.53;3.40;;;;;;;31.36;34.61;99491.97;4843636;29;20026;-46
2023/07/19 01:51:40;;;;;;;5.25;3.10;;;;;;;31.56;34.40;99488.25;4843652;29;20053;-43
2023/07/19 01:54:06;;;;;;;3.40;3.05;;;;;;;31.49;34.12;99482.56;4843437;29;20026;-44
2023/07/19 01:56:31;;;;;;;4.38;3.00;;;;;;;31.82;33.64;99486.97;4843864;29;20367;-43
2023/07/19 01:58:57;;;;;;;3.92;3.30;;;;;;;31.43;34.42;99485.88;4843305;29;20490;-43
2023/07/19 02:01:22;;;;;;;4.32;3.20;;;;;;;31.33;34.89;99481.66;4843519;29;20042;-42
2023/07/19 02:03:47;;;;;;;4.65;3.40;;;;;;;31.17;34.97;99482.41;4843558;29;20034;-43
2023/07/19 02:06:13;;;;;;;4.50;3.45;;;;;;;31.21;34.93;99474.28;4843397;29;20033;-43
2023/07/19 02:08:38;;;;;;;3.83;3.20;;;;;;;31.31;34.59;99478.47;4843303;29;20422;-42
2023/07/19 02:11:03;;;;;;;3.85;3.20;;;;;;;31.33;34.94;99482.47;4843312;29;20117;-43
2023/07/19 02:13:29;;;;;;;4.53;3.30;;;;;;;31.63;34.34;99484.91;4843189;29;20171;-42
2023/07/19 02:15:54;;;;;;;6.35;3.10;;;;;;;31.31;34.54;99484.75;4843068;29;20033;-43
2023/07/19 02:18:22;;;;;;;4.85;3.40;;;;;;;30.82;35.48;99489.56;4842678;29;20027;-42
2023/07/19 02:20:48;;;;;;;5.40;3.25;;;;;;;30.58;36.08;99489.25;4842676;29;20052;-44
2023/07/19 02:23:15;;;;;;;4.75;3.20;;;;;;;30.73;35.94;99486.91;4860839;29;20506;-42
2023/07/19 02:25:41;;;;;;;4.30;3.45;;;;;;;30.84;35.63;99493.53;4861297;29;20048;-46
2023/07/19 02:28:08;;;;;;;4.38;3.33;;;;;;;30.83;35.61;99497.47;4854025;29;20050;-43
2023/07/19 02:30:33;;;;;;;5.00;3.55;;;;;;;31.22;35.06;99486.84;4842807;29;20136;-41
2023/07/19 02:32:59;;;;;;;4.72;3.47;;;;;;;30.59;36.17;99488.06;4842968;29;20021;-43
2023/07/19 02:35:24;;;;;;;4.72;3.30;;;;;;;30.32;36.67;99486.03;4842882;29;20479;-42
2023/07/19 02:37:50;;;;;;;5.28;3.83;;;;;;;30.24;36.80;99487.72;4842055;29;20466;-43
2023/07/19 02:40:15;;;;;;;5.18;3.33;;;;;;;30.46;36.68;99494.72;4842788;29;20030;-42
2023/07/19 02:42:41;;;;;;;4.45;3.53;;;;;;;30.77;36.25;99485.91;4842208;29;20034;-43
2023/07/19 02:45:07;;;;;;;4.80;3.63;;;;;;;30.93;35.87;99487.97;4842474;29;20029;-43
2023/07/19 02:47:32;;;;;;;5.80;3.65;;;;;;;31.08;35.14;99490.00;4841487;29;20041;-43
2023/07/19 02:49:57;;;;;;;4.25;3.60;;;;;;;31.27;34.86;99492.13;4842810;29;20090;-47
2023/07/19 02:52:23;;;;;;;4.38;3.58;;;;;;;31.12;35.49;99499.13;4825810;29;20117;-44
2023/07/19 02:54:49;;;;;;;5.72;3.70;;;;;;;30.64;36.21;99492.56;4842368;29;20067;-44
2023/07/19 02:57:14;;;;;;;5.85;3.50;;;;;;;30.52;36.59;99481.56;4842796;29;20089;-44
2023/07/19 02:59:39;;;;;;;4.93;3.38;;;;;;;30.52;36.59;99484.31;4842559;29;20030;-43
2023/07/19 03:02:05;;;;;;;4.68;3.65;;;;;;;30.65;36.35;99485.91;4842284;29;20025;-44
2023/07/19 03:04:30;;;;;;;4.30;3.42;;;;;;;30.83;35.80;99496.66;4842624;29;20109;-46
2023/07/19 03:06:57;;;;;;;4.85;3.75;;;;;;;30.79;36.33;99491.84;4841914;29;20030;-45
2023/07/19 03:09:22;;;;;;;5.55;3.40;;;;;;;31.11;35.48;99486.56;4842269;29;20025;-43
2023/07/19 03:11:48;;;;;;;5.95;3.60;;;;;;;30.90;35.95;99485.91;4842039;29;20503;-44
2023/07/19 03:14:13;;;;;;;5.43;3.60;;;;;;;30.64;36.49;99487.06;4841921;29;20038;-46
2023/07/19 03:16:39;;;;;;;4.10;3.50;;;;;;;30.40;36.85;99485.13;4842100;29;20377;-45
2023/07/19 03:19:04;;;;;;;5.57;3.75;;;;;;;30.56;36.66;99488.00;4841827;29;20034;-45
2023/07/19 03:21:30;;;;;;;4.95;3.60;;;;;;;30.62;36.34;99478.38;4845415;29;20462;-42
2023/07/19 03:23:55;;;;;;;4.78;3.55;;;;;;;30.63;36.59;99493.69;4860258;29;20041;-43
2023/07/19 03:26:20;;;;;;;4.40;3.38;;;;;;;30.88;36.26;99489.00;4860196;29;20037;-42
2023/07/19 03:28:46;;;;;;;5.07;3.60;;;;;;;31.08;35.72;99500.19;4842955;29;20054;-45
2023/07/19 03:31:12;;;;;;;5.50;3.58;;;;;;;30.43;37.17;99505.59;4841453;29;20038;-43
2023/07/19 03:33:39;;;;;;;5.32;3.67;;;;;;;30.21;37.50;99510.34;4841442;29;20049;-44
2023/07/19 03:36:05;;;;;;;8.52;6.25;;;;;;;30.34;37.74;99503.75;4841049;29;20121;-44
2023/07/19 03:38:30;;;;;;;45.97;27.63;;;;;;;30.60;36.83;99502.63;4841142;29;20048;-40
2023/07/19 03:41:07;;;;;;;18.80;12.40;;;;;;;30.88;36.35;99504.66;4841563;29;20442;-42
2023/07/19 03:43:33;;;;;;;8.63;5.60;;;;;;;31.02;36.14;99498.84;4840923;29;20061;-42
2023/07/19 03:45:58;;;;;;;5.72;3.75;;;;;;;31.09;36.44;99499.03;4840810;29;20080;-43
2023/07/19 03:48:24;;;;;;;5.97;3.63;;;;;;;30.86;36.62;99493.22;4840798;29;20034;-41
2023/07/19 03:51:03;;;;;;;7.47;3.40;;;;;;;30.69;37.12;99500.56;4840475;29;20029;-43
2023/07/19 03:53:28;;;;;;;4.78;3.30;;;;;;;30.91;36.80;99495.75;4840254;29;20042;-46
2023/07/19 03:56:00;;;;;;;5.10;3.53;;;;;;;31.23;36.26;99496.72;4840563;29;20167;-44
2023/07/19 03:58:26;;;;;;;5.78;3.63;;;;;;;31.70;35.54;99498.84;4839732;29;20034;-45
2023/07/19 04:00:56;;;;;;;6.38;3.50;;;;;;;31.96;35.35;99492.03;4839532;29;20054;-42
2023/07/19 04:03:22;;;;;;;5.25;3.60;;;;;;;32.33;34.82;99495.38;4840265;29;20113;-42
2023/07/19 04:05:47;;;;;;;5.47;3.50;;;;;;;32.19;34.96;99494.22;4840719;29;20112;-43
2023/07/19 04:08:14;;;;;;;67.32;47.72;;;;;;;32.25;34.82;99484.53;4840915;29;20044;-42
2023/07/19 04:10:40;;;;;;;8.05;5.72;;;;;;;32.53;34.51;99485.22;4839962;29;20097;-42
2023/07/19 04:13:07;;;;;;;7.78;4.40;;;;;;;32.75;34.14;99482.19;4839744;29;20037;-41
2023/07/19 04:15:32;;;;;;;6.45;4.60;;;;;;;33.10;33.98;99484.94;4839399;29;20063;-42
2023/07/19 04:17:58;;;;;;;7.95;3.95;;;;;;;33.87;32.40;99475.06;4839698;29;20034;-42
2023/07/19 04:20:25;;;;;;;4.28;3.45;;;;;;;33.71;32.81;99480.69;4840016;29;20494;-42
2023/07/19 04:22:51;;;;;;;5.63;4.00;;;;;;;33.51;33.26;99477.16;4839704;29;20044;-43
2023/07/19 04:25:16;;;;;;;4.22;3.47;;;;;;;33.72;32.98;99481.47;4839845;29;20029;-42
2023/07/19 04:27:42;;;;;;;6.55;4.00;;;;;;;34.06;32.36;99471.44;4843928;29;20057;-43
2023/07/19 04:30:07;;;;;;;7.60;4.38;;;;;;;34.23;32.31;99471.00;4857602;29;20471;-44
2023/07/19 04:32:33;;;;;;;6.45;4.07;;;;;;;34.81;30.96;99480.16;4857650;29;20112;-44
2023/07/19 04:34:58;;;;;;;5.60;3.70;;;;;;;34.80;31.13;99470.25;4857845;29;20037;-44
2023/07/19 04:37:24;;;;;;;5.20;3.65;;;;;;;34.78;30.32;99472.59;4858333;29;20034;-44
2023/07/19 04:39:50;;;;;;;7.40;4.57;;;;;;;34.87;31.10;99475.09;4857984;29;20474;-43
2023/07/19 04:42:17;;;;;;;8.52;5.60;;;;;;;35.09;30.46;99462.34;4857787;29;20033;-42
2023/07/19 04:44:42;;;;;;;8.30;3.70;;;;;;;35.49;29.92;99466.41;4857864;29;20038;-43
2023/07/19 04:47:10;;;;;;;5.20;3.30;;;;;;;35.92;29.20;99472.41;4857762;29;20033;-42
2023/07/19 04:49:35;;;;;;;4.43;3.47;;;;;;;35.86;29.28;99468.41;4858227;29;20052;-43
2023/07/19 04:52:01;;;;;;;4.95;3.70;;;;;;;35.70;29.61;99469.44;4857512;29;20483;-44
2023/07/19 04:54:26;;;;;;;4.75;3.42;;;;;;;35.71;29.69;99467.44;4857732;29;20040;-44
2023/07/19 04:56:52;;;;;;;5.70;3.33;;;;;;;36.14;29.18;99468.63;4857184;29;20040;-46
2023/07/19 04:59:17;;;;;;;6.45;3.65;;;;;;;36.55;28.50;99471.31;4857437;29;20034;-43
2023/07/19 05:01:43;;;;;;;6.57;3.38;;;;;;;36.75;28.19;99468.31;4860090;29;20040;-45
2023/07/19 05:04:08;;;;;;;6.75;3.30;;;;;;;36.45;28.55;99471.28;4858181;29;20036;-44
2023/07/19 05:06:34;;;;;;;7.30;4.55;;;;;;;36.34;28.58;99471.97;4857391;29;20497;-42
2023/07/19 05:08:59;;;;;;;6.97;4.07;;;;;;;36.56;28.36;99475.69;4857475;29;20029;-43
2023/07/19 05:11:25;;;;;;;6.63;3.30;;;;;;;36.69;28.25;99478.97;4859048;29;20402;-43
2023/07/19 05:13:51;;;;;;;7.85;3.60;;;;;;;37.14;27.52;99471.28;4862225;29;20410;-45
2023/07/19 05:16:16;;;;;;;4.88;3.47;;;;;;;37.81;26.83;99469.13;4861528;29;20029;-42
2023/07/19 05:18:42;;;;;;;4.75;3.50;;;;;;;37.55;27.36;99482.13;4862204;29;20089;-43
2023/07/19 05:21:07;;;;;;;10.43;8.07;;;;;;;37.39;27.62;99480.91;4861984;29;20112;-45
2023/07/19 05:23:33;;;;;;;4.82;3.30;;;;;;;37.36;27.59;99485.25;4862167;29;20387;-41
2023/07/19 05:25:58;;;;;;;6.65;3.47;;;;;;;37.45;27.66;99480.13;4861479;29;20459;-43
2023/07/19 05:28:24;;;;;;;5.70;3.60;;;;;;;37.65;27.00;99479.81;4851206;29;20061;-43
2023/07/19 05:30:49;;;;;;;6.97;3.50;;;;;;;38.39;25.92;99481.06;4840946;29;20045;-44
2023/07/19 05:33:15;;;;;;;5.55;3.30;;;;;;;37.98;26.75;99473.09;4841526;29;20036;-43
2023/07/19 05:35:42;;;;;;;5.20;3.30;;;;;;;37.64;27.49;99481.00;4842457;29;20049;-44
2023/07/19 05:38:08;;;;;;;9.57;3.55;;;;;;;37.89;27.27;99484.63;4825686;29;20561;-45
2023/07/19 05:40:33;;;;;;;4.15;3.42;;;;;;;37.95;27.40;99483.03;4841592;29;20094;-46
2023/07/19 05:42:59;;;;;;;8.48;3.70;;;;;;;37.92;26.71;99488.56;4841351;29;20045;-45
2023/07/19 05:45:24;;;;;;;6.32;3.33;;;;;;;38.58;26.18;99490.22;4841986;29;20067;-43
2023/07/19 05:47:50;;;;;;;5.35;3.50;;;;;;;38.54;26.35;99487.44;4841693;29;20486;-43
2023/07/19 05:50:15;;;;;;;7.05;3.53;;;;;;;38.45;26.42;99481.47;4843218;29;20029;-43
2023/07/19 05:52:41;;;;;;;7.80;3.83;;;;;;;38.65;26.12;99481.84;4842544;29;20037;-44
2023/07/19 05:55:07;;;;;;;4.78;3.50;;;;;;;38.72;26.37;99479.81;4840088;29;20494;-44
2023/07/19 05:57:33;;;;;;;6.05;3.60;;;;;;;39.88;24.68;99486.50;4840104;29;20034;-43
2023/07/19 06:00:13;;;;;;;5.28;3.50;;;;;;;39.43;25.13;99485.53;4839508;29;20041;-42
2023/07/19 06:02:40;;;;;;;5.07;4.03;;;;;;;39.43;24.78;99477.19;4839492;29;20445;-44
2023/07/19 06:05:06;;;;;;;11.82;6.47;;;;;;;39.04;25.35;99489.31;4839956;29;20094;-43
2023/07/19 06:07:32;;;;;;;7.10;4.40;;;;;;;39.27;25.25;99492.38;4838698;29;20034;-44
2023/07/19 06:09:58;;;;;;;6.47;3.60;;;;;;;39.45;24.07;99481.19;4839356;29;20041;-44
2023/07/19 06:12:23;;;;;;;3.60;3.03;;;;;;;39.21;24.52;99487.66;4839486;29;20095;-42
2023/07/19 06:14:49;;;;;;;6.85;3.35;;;;;;;38.71;24.99;99481.03;4840298;29;20030;-43
2023/07/19 06:17:14;;;;;;;8.63;3.33;;;;;;;38.60;24.90;99480.25;4840284;29;20511;-48
2023/07/19 06:19:40;;;;;;;5.70;3.30;;;;;;;39.41;24.79;99469.28;4840446;29;20030;-43
2023/07/19 06:22:05;;;;;;;7.47;3.20;;;;;;;40.00;24.27;99473.28;4841056;29;20034;-43
2023/07/19 06:24:30;;;;;;;4.90;3.03;;;;;;;40.76;22.65;99476.97;4841403;29;20052;-44
2023/07/19 06:26:56;;;;;;;6.80;3.83;;;;;;;40.04;23.26;99468.47;4841208;29;20026;-45
2023/07/19 06:29:22;;;;;;;7.65;4.68;;;;;;;40.18;23.13;99471.16;4841235;29;20057;-46
2023/07/19 06:31:47;;;;;;;6.85;4.00;;;;;;;40.50;23.04;99464.50;4840762;29;20420;-44
2023/07/19 06:34:13;;;;;;;7.50;3.78;;;;;;;40.90;22.68;99467.69;4841679;29;20065;-43
2023/07/19 06:36:38;;;;;;;4.78;3.45;;;;;;;41.18;22.76;99468.53;4841236;29;20025;-47
2023/07/19 06:39:04;;;;;;;4.28;3.00;;;;;;;41.45;21.92;99470.56;4841090;29;20042;-43
2023/07/19 06:41:30;;;;;;;4.32;3.33;;;;;;;40.92;22.83;99462.47;4841241;29;20058;-46
2023/07/19 06:43:57;;;;;;;4.90;3.40;;;;;;;40.87;23.06;99473.31;4841195;29;20084;-43
2023/07/19 06:46:22;;;;;;;4.90;3.42;;;;;;;40.98;22.56;99463.59;4841394;29;20025;-43
2023/07/19 06:48:48;;;;;;;4.82;3.30;;;;;;;41.21;22.66;99464.94;4841006;29;20034;-44
2023/07/19 06:51:14;;;;;;;4.90;3.40;;;;;;;42.40;21.64;99463.88;4841104;29;20081;-44
2023/07/19 06:53:39;;;;;;;4.30;3.22;;;;;;;41.88;21.16;99469.97;4841237;29;20037;-44
2023/07/19 06:56:05;;;;;;;5.60;3.33;;;;;;;41.73;22.06;99472.19;4840411;29;20030;-42
2023/07/19 06:58:30;;;;;;;4.80;3.20;;;;;;;41.60;21.94;99463.56;4841180;29;20097;-47
2023/07/19 07:00:56;;;;;;;4.85;3.30;;;;;;;41.36;21.70;99465.53;4841178;29;20053;-46
2023/07/19 07:03:22;;;;;;;4.63;3.40;;;;;;;41.80;21.17;99464.50;4841279;29;20033;-43
2023/07/19 07:05:48;;;;;;;4.45;3.13;;;;;;;42.23;21.04;99457.41;4840975;29;20105;-43
2023/07/19 07:08:13;;;;;;;4.53;3.42;;;;;;;42.00;21.04;99460.97;4840759;29;20167;-44
2023/07/19 07:10:42;;;;;;;8.10;3.53;;;;;;;41.30;21.87;99456.84;4839164;29;20030;-44
2023/07/19 07:13:08;;;;;;;3.65;3.28;;;;;;;41.65;21.54;99453.97;4840515;29;20041;-42
2023/07/19 07:15:33;;;;;;;5.60;3.80;;;;;;;41.87;20.99;99460.00;4840369;29;20030;-44
2023/07/19 07:17:58;;;;;;;5.78;3.45;;;;;;;41.69;21.11;99449.13;4840437;29;20394;-42
2023/07/19 07:20:24;;;;;;;3.63;3.22;;;;;;;41.95;21.61;99450.31;4840419;29;20038;-43
2023/07/19 07:22:50;;;;;;;3.95;3.15;;;;;;;41.34;22.03;99452.00;4840012;29;20030;-43
2023/07/19 07:25:16;;;;;;;4.57;3.35;;;;;;;41.45;22.14;99446.25;4840672;29;20025;-42
2023/07/19 07:27:41;;;;;;;4.35;3.30;;;;;;;41.44;22.03;99444.66;4840026;29;20546;-44
2023/07/19 07:30:10;;;;;;;5.10;3.22;;;;;;;41.82;21.83;99452.13;4840200;29;20033;-44
2023/07/19 07:32:35;;;;;;;4.13;3.17;;;;;;;41.94;21.14;99449.50;4840316;29;20109;-45
2023/07/19 07:35:02;;;;;;;5.13;3.50;;;;;;;41.98;20.98;99438.25;4839632;29;20030;-44
2023/07/19 07:37:28;;;;;;;4.65;3.50;;;;;;;42.82;20.11;99433.53;4840432;29;20026;-44
2023/07/19 07:39:54;;;;;;;4.25;3.30;;;;;;;42.66;20.19;99428.69;4839977;29;20040;-45
2023/07/19 07:42:20;;;;;;;5.80;3.28;;;;;;;42.30;20.49;99428.56;4840345;29;20120;-46
2023/07/19 07:44:46;;;;;;;3.97;2.92;;;;;;;42.00;20.27;99431.06;4840128;29;20030;-45
2023/07/19 07:47:11;;;;;;;4.20;2.88;;;;;;;41.35;20.10;99428.44;4840308;29;20025;-43
2023/07/19 07:49:37;;;;;;;4.00;3.00;;;;;;;41.54;20.44;99426.19;4839901;29;20033;-43
2023/07/19 07:52:03;;;;;;;3.90;3.13;;;;;;;41.45;20.79;99418.34;4840328;29;20466;-43
2023/07/19 07:54:29;;;;;;;3.92;3.28;;;;;;;41.30;20.72;99425.31;4840111;29;20041;-44
2023/07/19 07:56:54;;;;;;;7.22;3.17;;;;;;;40.84;21.44;99419.94;4840088;29;20452;-44
2023/07/19 07:59:20;;;;;;;4.38;3.10;;;;;;;40.85;21.48;99426.31;4840177;29;20037;-44
2023/07/19 08:01:46;;;;;;;6.40;3.33;;;;;;;41.14;21.00;99431.50;4839750;29;20086;-46
2023/07/19 08:04:12;;;;;;;4.45;3.40;;;;;;;41.60;20.30;99421.69;4840304;29;20037;-42
2023/07/19 08:06:38;;;;;;;4.60;3.28;;;;;;;42.21;20.30;99425.53;4840348;29;20086;-46
2023/07/19 08:09:04;;;;;;;3.83;3.10;;;;;;;41.94;20.71;99435.53;4839777;29;20030;-48
2023/07/19 08:11:32;;;;;;;5.20;3.17;;;;;;;41.69;20.53;99430.34;4839516;29;20460;-45
2023/07/19 08:13:57;;;;;;;4.85;3.10;;;;;;;41.47;20.56;99418.72;4840069;29;20041;-45
2023/07/19 08:16:22;;;;;;;4.78;3.45;;;;;;;41.35;20.53;99417.28;4839805;29;20030;-46
2023/07/19 08:18:48;;;;;;;4.47;3.10;;;;;;;41.44;20.39;99416.75;4839962;29;20026;-47
2023/07/19 08:21:13;;;;;;;4.30;3.10;;;;;;;41.72;20.25;99423.94;4838533;29;20025;-48
2023/07/19 08:23:39;;;;;;;3.58;3.08;;;;;;;42.24;20.26;99414.28;4839818;29;20497;-46
2023/07/19 08:26:04;;;;;;;3.85;3.53;;;;;;;42.02;20.29;99408.25;4839525;29;20028;-46
2023/07/19 08:28:30;;;;;;;4.95;3.40;;;;;;;42.06;20.05;99408.22;4839297;29;20058;-47
2023/07/19 08:30:55;;;;;;;7.57;3.55;;;;;;;42.18;20.35;99411.19;4839599;29;20584;-45
2023/07/19 08:33:22;;;;;;;5.32;3.40;;;;;;;42.43;20.08;99404.34;4839781;29;20491;-47
2023/07/19 08:35:49;;;;;;;4.18;3.70;;;;;;;42.71;19.38;99407.81;4839916;29;20116;-48
2023/07/19 08:38:15;;;;;;;3.83;3.10;;;;;;;42.60;19.86;99401.66;4839735;29;20118;-46
2023/07/19 08:40:44;;;;;;;3.60;3.20;;;;;;;42.45;20.13;99396.31;4839942;29;20469;-46
2023/07/19 08:43:09;;;;;;;5.53;3.40;;;;;;;41.66;20.50;99394.91;4839712;29;20498;-45
2023/07/19 08:45:37;;;;;;;4.15;3.58;;;;;;;41.64;20.33;99388.94;4838822;29;20026;-47
2023/07/19 08:48:03;;;;;;;5.10;3.42;;;;;;;41.64;20.99;99393.75;4839359;29;20046;-46
2023/07/19 08:50:29;;;;;;;8.35;3.55;;;;;;;41.52;20.75;99395.09;4839184;29;20033;-44
2023/07/19 08:52:56;;;;;;;6.85;3.55;;;;;;;41.50;20.44;99387.16;4839603;29;20033;-44
2023/07/19 08:55:22;;;;;;;4.32;3.60;;;;;;;40.72;21.48;99389.00;4839638;29;20061;-46
2023/07/19 08:57:47;;;;;;;4.45;3.60;;;;;;;40.57;21.07;99378.00;4838114;29;20033;-44
2023/07/19 09:00:17;;;;;;;5.15;3.70;;;;;;;40.49;21.62;99375.72;4839310;29;20033;-44
2023/07/19 09:02:43;;;;;;;4.97;3.53;;;;;;;40.34;21.45;99380.66;4839611;29;20036;-45
2023/07/19 09:05:11;;;;;;;4.55;3.47;;;;;;;40.21;21.54;99374.78;4839165;29;20036;-46
2023/07/19 09:07:38;;;;;;;5.60;3.63;;;;;;;40.83;21.04;99373.72;4839456;29;20362;-48
2023/07/19 09:10:06;;;;;;;11.13;3.77;;;;;;;40.83;20.65;99376.50;4839521;29;20030;-44
2023/07/19 09:12:36;;;;;;;5.43;3.70;;;;;;;39.99;21.53;99357.53;4838191;29;20418;-43
2023/07/19 09:15:03;;;;;;;4.55;3.63;;;;;;;39.55;21.96;99367.44;4839579;29;20041;-46
2023/07/19 09:17:29;;;;;;;5.03;3.70;;;;;;;39.52;22.29;99355.09;4839433;29;20116;-45
2023/07/19 09:19:54;;;;;;;4.53;3.88;;;;;;;39.34;22.40;99351.63;4838932;29;20042;-43
2023/07/19 09:22:20;;;;;;;7.75;3.95;;;;;;;40.04;22.01;99349.50;4839291;29;20041;-44
2023/07/19 09:25:01;;;;;;;4.90;3.80;;;;;;;40.68;20.77;99352.00;4839111;29;20030;-45
2023/07/19 09:27:27;;;;;;;8.07;3.92;;;;;;;40.25;22.47;99347.69;4839737;29;20033;-44
2023/07/19 09:29:52;;;;;;;6.10;3.72;;;;;;;40.91;21.92;99345.75;4839477;29;20117;-45
2023/07/19 09:32:18;;;;;;;6.50;3.30;;;;;;;41.42;20.96;99343.81;4839031;29;20041;-46
2023/07/19 09:34:45;;;;;;;4.15;3.42;;;;;;;41.73;20.62;99327.75;4839539;29;20053;-47
2023/07/19 09:37:11;;;;;;;4.43;3.17;;;;;;;42.15;19.74;99328.19;4839304;29;20077;-44
2023/07/19 09:39:37;;;;;;;6.10;3.75;;;;;;;41.57;20.05;99336.78;4839385;29;20030;-45
2023/07/19 09:42:03;;;;;;;4.20;3.47;;;;;;;41.46;20.34;99322.22;4839215;29;20034;-45
2023/07/19 09:44:30;;;;;;;6.43;3.22;;;;;;;41.54;20.56;99326.44;4839220;29;20030;-45
2023/07/19 09:46:56;;;;;;;6.40;3.53;;;;;;;41.82;20.62;99324.41;4838758;29;20030;-44
2023/07/19 09:49:22;;;;;;;4.88;3.45;;;;;;;41.95;20.28;99324.59;4839289;29;20038;-43
2023/07/19 09:51:48;;;;;;;4.57;3.30;;;;;;;42.30;19.75;99319.53;4839758;29;20044;-43
2023/07/19 09:54:15;;;;;;;5.10;3.40;;;;;;;42.38;19.21;99313.41;4839155;29;20034;-44
2023/07/19 09:56:42;;;;;;;4.18;3.25;;;;;;;43.21;18.76;99316.41;4839272;29;20036;-45
2023/07/19 09:59:17;;;;;;;4.27;3.20;;;;;;;42.70;19.19;99311.94;4842455;29;20113;-43
2023/07/19 10:01:43;;;;;;;7.00;3.40;;;;;;;42.53;19.04;99308.28;4842491;29;20262;-44
2023/07/19 10:04:25;;;;;;;4.88;3.22;;;;;;;42.37;18.57;99311.03;4842741;29;20128;-43
2023/07/19 10:07:09;;;;;;;4.70;3.28;;;;;;;42.15;19.04;99293.88;4842488;29;20040;-43
2023/07/19 10:09:43;;;;;;;4.35;3.30;;;;;;;41.52;19.13;99298.19;4842439;29;20052;-43
2023/07/19 10:12:17;;;;;;;4.40;3.42;;;;;;;42.05;19.06;99292.09;4842187;29;20072;-44
2023/07/19 10:15:05;;;;;;;3.70;3.15;;;;;;;41.81;18.79;99283.72;4842046;29;20038;-45
2023/07/19 10:17:41;;;;;;;5.43;2.92;;;;;;;41.67;18.87;99284.78;4842301;29;20052;-44
2023/07/19 10:20:07;;;;;;;3.58;3.05;;;;;;;41.89;19.33;99281.59;4841897;29;20407;-42
2023/07/19 10:22:45;;;;;;;4.97;3.28;;;;;;;42.30;18.58;99275.59;4841795;29;20590;-43
2023/07/19 10:25:14;;;;;;;4.65;2.92;;;;;;;42.79;17.43;99277.00;4841727;29;20030;-43
2023/07/19 10:27:40;;;;;;;4.10;3.00;;;;;;;43.44;16.71;99277.06;4842165;29;20134;-44
2023/07/19 10:30:06;;;;;;;4.35;3.10;;;;;;;42.61;17.44;99280.19;4841723;29;20494;-45
2023/07/19 10:32:31;;;;;;;3.47;2.90;;;;;;;41.87;17.49;99284.84;4841819;29;20514;-44
2023/07/19 10:34:57;;;;;;;4.47;3.10;;;;;;;41.25;18.22;99277.91;4841794;29;20033;-44
2023/07/19 10:37:22;;;;;;;3.88;2.90;;;;;;;41.23;18.35;99272.75;4841866;29;20029;-44
2023/07/19 10:39:48;;;;;;;4.30;2.85;;;;;;;41.29;18.78;99265.47;4841717;29;20026;-44
2023/07/19 10:42:14;;;;;;;3.70;3.00;;;;;;;40.99;18.36;99250.41;4841308;29;20059;-43
2023/07/19 10:44:40;;;;;;;5.72;2.92;;;;;;;41.11;18.69;99260.16;4841313;29;20427;-45
2023/07/19 10:47:06;;;;;;;3.30;3.00;;;;;;;41.27;17.95;99261.53;4840967;29;20026;-43
2023/07/19 10:49:31;;;;;;;3.38;3.05;;;;;;;41.40;18.69;99259.72;4841286;29;20030;-45
2023/07/19 10:51:58;;;;;;;3.70;3.10;;;;;;;42.09;18.45;99248.13;4841357;29;20192;-46
2023/07/19 10:54:25;;;;;;;3.38;2.70;;;;;;;42.23;17.81;99256.19;4841744;29;20081;-44
2023/07/19 10:56:52;;;;;;;4.72;3.20;;;;;;;42.32;18.18;99252.81;4841409;29;20030;-45
2023/07/19 10:59:17;;;;;;;5.55;2.95;;;;;;;41.95;17.93;99254.75;4841367;29;20029;-42
2023/07/19 11:01:46;;;;;;;4.07;3.03;;;;;;;41.98;17.39;99246.31;4840927;29;20451;-43
2023/07/19 11:04:11;;;;;;;6.13;3.10;;;;;;;41.93;17.95;99240.44;4841159;29;20025;-44
2023/07/19 11:06:39;;;;;;;4.68;2.85;;;;;;;41.81;17.36;99239.03;4841094;29;20037;-44
2023/07/19 11:09:09;;;;;;;4.28;3.05;;;;;;;41.97;17.97;99229.97;4840063;29;20026;-44
2023/07/19 11:11:37;;;;;;;3.53;2.95;;;;;;;42.36;17.04;99233.97;4841156;29;20332;-42
2023/07/19 11:14:02;;;;;;;;;;;;;;;43.10;16.40;99227.13;4841073;29;20034;-46
2023/07/19 11:16:29;;;;;;;5.55;3.00;;;;;;;42.62;16.99;99225.84;4840379;29;20296;-44
2023/07/19 11:18:54;;;;;;;4.43;3.10;;;;;;;42.50;16.67;99221.69;4840720;29;20025;-46
2023/07/19 11:21:27;;;;;;;5.75;3.00;;;;;;;42.68;17.55;99205.31;4840647;29;20060;-44
2023/07/19 11:23:53;;;;;;;4.00;3.20;;;;;;;43.05;16.35;99210.84;4840599;29;20026;-44
2023/07/19 11:26:19;;;;;;;3.80;3.10;;;;;;;42.75;16.53;99210.75;4840859;29;20105;-45
2023/07/19 11:28:46;;;;;;;5.22;3.30;;;;;;;42.97;16.62;99213.03;4840515;29;20611;-43
2023/07/19 11:31:36;;;;;;;4.43;3.08;;;;;;;42.88;17.40;99210.88;4840628;29;20034;-44